EGQL - Leuchars
Distance from station: E 5mi, 14km
Updated: 07/23/2018 3:50am
Partly Cloudy
Partly Cloudy
 Wind from WSW
Wind: WSW 21 mph , 33 km/h
Temperature: 77°F , 25°C
Dew Point: 59°F , 15°C
Humidity: 54%
Barometer: 29.85 inHg , 1011 hPa
Clouds: Partly Cloudy
Visibility: 6 miles , 10 km
Cloud details: Partly Cloudy 2700 ft
2018/07/23 10:50 EGQL 231050Z 24018KT 9999 SCT027 25/15 Q1011 BLU